Time;durP1;ratioP1;P1;durP2;ratioP2;P2;SDS_P1;SDS_P2;PMS_P1;PMS_P2;Temp;Humidity;BMP_temperature;BMP_pressure;BME280_temperature;BME280_humidity;BME280_pressure;Samples;Min_cycle;Max_cycle;Signal;HPM_P1;HPM_P2
2022/06/02 00:08:49;;;;;;;;;;;23.70;44.50;;;;;;21254005;27;20294;-68
2022/06/02 00:19:01;;;;;;;;;;;23.50;44.90;;;;;;21210744;27;20026;-63
2022/06/02 00:29:30;;;;;;;;;;;23.40;45.20;;;;;;21167036;28;20018;-64
2022/06/02 00:39:33;;;;;;;;;;;23.30;45.40;;;;;;21011465;28;19950;-72
2022/06/02 00:49:54;;;;;;;;;;;23.10;45.80;;;;;;20988452;28;20308;-67
2022/06/02 01:00:08;;;;;;;;;;;23.10;46.10;;;;;;20987663;28;19924;-66
2022/06/02 01:10:18;;;;;;;;;;;23.20;46.00;;;;;;21035494;28;19930;-68
2022/06/02 01:20:28;;;;;;;;;;;23.20;45.90;;;;;;21219508;27;19968;-72
2022/06/02 01:30:38;;;;;;;;;;;23.10;46.30;;;;;;21248392;27;20306;-71
2022/06/02 01:40:59;;;;;;;;;;;22.90;46.90;;;;;;21248042;28;19930;-63
2022/06/02 01:51:37;;;;;;;;;;;22.70;47.10;;;;;;21248424;28;19924;-63
2022/06/02 02:01:45;;;;;;;;;;;22.60;47.60;;;;;;21238085;27;19930;-71
2022/06/02 02:11:56;;;;;;;;;;;22.40;47.90;;;;;;21264164;27;19923;-70
2022/06/02 02:22:06;;;;;;;;;;;22.40;47.80;;;;;;21263079;27;19931;-68
2022/06/02 02:32:41;;;;;;;;;;;22.20;48.00;;;;;;21262727;27;19923;-66
2022/06/02 02:42:51;;;;;;;;;;;22.20;48.10;;;;;;21083793;28;20377;-71
2022/06/02 02:53:02;;;;;;;;;;;21.70;49.40;;;;;;21082500;28;20354;-74
2022/06/02 03:03:07;;;;;;;;;;;21.50;50.30;;;;;;21081893;28;20026;-75
2022/06/02 03:13:40;;;;;;;;;;;21.10;51.30;;;;;;21133079;27;19962;-67
2022/06/02 03:23:58;;;;;;;;;;;20.80;51.80;;;;;;21257030;27;19972;-64
2022/06/02 03:34:01;;;;;;;;;;;20.50;52.20;;;;;;21256786;27;20018;-69
2022/06/02 03:44:11;;;;;;;;;;;20.40;52.50;;;;;;21256931;27;20409;-68
2022/06/02 03:54:16;;;;;;;;;;;20.30;52.50;;;;;;21256159;27;19923;-68
2022/06/02 04:04:37;;;;;;;;;;;20.20;52.80;;;;;;21270695;27;20294;-69
2022/06/02 04:14:58;;;;;;;;;;;20.00;53.30;;;;;;21254539;27;19927;-69
2022/06/02 04:25:17;;;;;;;;;;;20.20;53.30;;;;;;21253477;27;20340;-68
2022/06/02 04:35:23;;;;;;;;;;;19.80;53.90;;;;;;21254817;27;20279;-66
2022/06/02 04:45:25;;;;;;;;;;;19.70;54.30;;;;;;21258755;27;19927;-67
2022/06/02 04:55:45;;;;;;;;;;;19.70;54.50;;;;;;21254456;27;19970;-65
2022/06/02 05:05:49;;;;;;;;;;;19.60;54.80;;;;;;21250187;27;19924;-63
2022/06/02 05:15:53;;;;;;;;;;;19.60;55.00;;;;;;21248992;27;19959;-62
2022/06/02 05:25:57;;;;;;;;;;;;;;;;;;21248947;27;20383;-67
2022/06/02 05:36:17;;;;;;;;;;;19.70;55.20;;;;;;21247095;27;19929;-63
2022/06/02 05:46:32;;;;;;;;;;;19.70;55.10;;;;;;21247659;28;20352;-65
2022/06/02 05:56:34;;;;;;;;;;;19.80;55.40;;;;;;21247012;28;19924;-65
2022/06/02 06:06:47;;;;;;;;;;;20.10;55.00;;;;;;21246716;28;19928;-67
2022/06/02 06:16:56;;;;;;;;;;;20.30;54.30;;;;;;21246871;28;19984;-63
2022/06/02 06:27:08;;;;;;;;;;;20.70;53.70;;;;;;21246152;28;19930;-66
2022/06/02 06:37:10;;;;;;;;;;;20.90;53.50;;;;;;21245439;28;20395;-64
2022/06/02 06:47:33;;;;;;;;;;;21.20;53.50;;;;;;21248149;27;19924;-64
2022/06/02 06:57:40;;;;;;;;;;;21.80;52.60;;;;;;21258582;27;20074;-69
2022/06/02 07:07:44;;;;;;;;;;;22.50;50.40;;;;;;21257645;27;19923;-68
2022/06/02 07:17:49;;;;;;;;;;;23.20;49.40;;;;;;21257334;27;19923;-63
2022/06/02 07:28:10;;;;;;;;;;;24.20;47.40;;;;;;21257877;27;19923;-64
2022/06/02 07:38:30;;;;;;;;;;;23.90;47.80;;;;;;21255217;27;19930;-66
2022/06/02 07:48:39;;;;;;;;;;;24.80;45.90;;;;;;21254194;27;19928;-62
2022/06/02 07:58:52;;;;;;;;;;;25.10;45.60;;;;;;21254747;27;19923;-71
2022/06/02 08:09:12;;;;;;;;;;;25.50;45.20;;;;;;21240820;27;20286;-72
2022/06/02 08:19:16;;;;;;;;;;;25.50;44.60;;;;;;21251973;27;19976;-63
2022/06/02 08:29:21;;;;;;;;;;;25.00;45.50;;;;;;21252316;27;20054;-61
2022/06/02 08:39:44;;;;;;;;;;;25.00;44.70;;;;;;21251360;27;19923;-63
2022/06/02 08:49:46;;;;;;;;;;;25.50;44.00;;;;;;21145899;28;19927;-67
2022/06/02 09:00:03;;;;;;;;;;;25.30;44.40;;;;;;21164892;28;19924;-63
2022/06/02 09:10:10;;;;;;;;;;;25.60;43.70;;;;;;21163300;28;20371;-65
2022/06/02 09:20:18;;;;;;;;;;;25.90;43.30;;;;;;21163094;28;19924;-65
2022/06/02 09:30:25;;;;;;;;;;;26.10;43.10;;;;;;21162518;28;20342;-64
2022/06/02 09:40:27;;;;;;;;;;;26.00;43.00;;;;;;21163498;28;19924;-64
2022/06/02 09:50:49;;;;;;;;;;;26.10;42.80;;;;;;21165189;28;20295;-65
2022/06/02 10:01:10;;;;;;;;;;;26.30;42.40;;;;;;21177878;28;19931;-63
2022/06/02 10:11:18;;;;;;;;;;;26.90;41.40;;;;;;21176901;28;20334;-65
2022/06/02 10:21:36;;;;;;;;;;;26.60;44.00;;;;;;21163942;28;19930;-62
2022/06/02 10:32:12;;;;;;;;;;;26.40;44.00;;;;;;21177291;28;19928;-63
2022/06/02 10:42:16;;;;;;;;;;;26.40;43.10;;;;;;21156263;28;19977;-62
2022/06/02 10:52:18;;;;;;;;;;;26.90;41.90;;;;;;21174292;28;20011;-62
2022/06/02 11:02:38;;;;;;;;;;;27.20;40.10;;;;;;21175252;28;19927;-63
2022/06/02 11:12:52;;;;;;;;;;;27.20;39.80;;;;;;21173535;28;19934;-72
2022/06/02 11:23:05;;;;;;;;;;;27.20;38.80;;;;;;21172646;28;19924;-67
2022/06/02 11:33:26;;;;;;;;;;;27.30;39.10;;;;;;21170940;28;19930;-69
2022/06/02 11:43:47;;;;;;;;;;;27.50;38.60;;;;;;21173362;28;20224;-75
2022/06/02 11:53:59;;;;;;;;;;;27.40;38.50;;;;;;21202244;27;19942;-66
2022/06/02 12:04:02;;;;;;;;;;;;;;;;;;21258487;27;20363;-70
2022/06/02 12:14:04;;;;;;;;;;;27.90;36.50;;;;;;21252211;27;19934;-62
2022/06/02 12:24:06;;;;;;;;;;;;;;;;;;21251547;27;19934;-63
2022/06/02 12:34:08;;;;;;;;;;;;;;;;;;21251255;27;19999;-63
2022/06/02 12:44:13;;;;;;;;;;;29.20;33.80;;;;;;21249572;27;19981;-63
2022/06/02 12:54:15;;;;;;;;;;;;;;;;;;21250060;27;19923;-62
2022/06/02 13:04:23;;;;;;;;;;;29.00;34.00;;;;;;21251303;27;19923;-63
2022/06/02 13:14:43;;;;;;;;;;;28.80;33.90;;;;;;21248853;27;20267;-62
2022/06/02 13:24:44;;;;;;;;;;;28.90;33.70;;;;;;21246619;27;19924;-62
2022/06/02 13:35:04;;;;;;;;;;;29.00;32.80;;;;;;21246369;27;19971;-63
2022/06/02 13:45:05;;;;;;;;;;;29.10;32.00;;;;;;21247073;28;19931;-63
2022/06/02 14:06:05;;;;;;;;;;;28.60;32.20;;;;;;21263097;27;19931;-63
2022/06/02 14:16:09;;;;;;;;;;;28.80;31.50;;;;;;21262858;27;20272;-64
2022/06/02 14:26:16;;;;;;;;;;;28.60;31.40;;;;;;21262215;27;19930;-63
2022/06/02 14:36:26;;;;;;;;;;;29.10;30.30;;;;;;21261614;27;19923;-61
2022/06/02 14:46:34;;;;;;;;;;;29.00;29.70;;;;;;21262245;27;19923;-63
2022/06/02 14:56:42;;;;;;;;;;;29.00;29.70;;;;;;21263295;27;20022;-63
2022/06/02 15:07:01;;;;;;;;;;;29.30;29.00;;;;;;21258478;27;19923;-61
2022/06/02 15:17:26;;;;;;;;;;;29.20;28.50;;;;;;21258126;27;19930;-63
2022/06/02 15:27:39;;;;;;;;;;;29.40;28.80;;;;;;21258315;27;19923;-63
2022/06/02 15:37:44;;;;;;;;;;;29.40;27.80;;;;;;21256042;27;19923;-61
2022/06/02 15:48:05;;;;;;;;;;;29.20;28.30;;;;;;21257103;27;19984;-60
2022/06/02 15:58:08;;;;;;;;;;;;;;;;;;21254866;27;19923;-62
2022/06/02 16:08:30;;;;;;;;;;;29.20;28.70;;;;;;21252754;27;20019;-61
2022/06/02 16:18:40;;;;;;;;;;;28.90;28.50;;;;;;21252538;27;20403;-63
2022/06/02 16:28:42;;;;;;;;;;;28.90;29.00;;;;;;21252116;27;19924;-61
2022/06/02 16:38:59;;;;;;;;;;;28.80;29.30;;;;;;21251726;27;20018;-63
2022/06/02 16:49:17;;;;;;;;;;;28.80;29.50;;;;;;21252382;27;20313;-62
2022/06/02 16:59:26;;;;;;;;;;;28.70;29.70;;;;;;21249714;27;19924;-61
2022/06/02 17:09:43;;;;;;;;;;;28.50;30.60;;;;;;21249175;27;19924;-63
2022/06/02 17:19:50;;;;;;;;;;;28.40;31.20;;;;;;21230184;27;20015;-63
2022/06/02 17:30:12;;;;;;;;;;;28.30;31.60;;;;;;21248232;27;19931;-62
2022/06/02 17:40:29;;;;;;;;;;;28.00;31.90;;;;;;20903233;28;20328;-61
2022/06/02 17:50:40;;;;;;;;;;;28.00;32.20;;;;;;20902880;28;19960;-63
2022/06/02 18:00:57;;;;;;;;;;;27.70;32.80;;;;;;20901953;28;20383;-62
2022/06/02 18:11:01;;;;;;;;;;;27.50;32.90;;;;;;20986726;28;19923;-61
2022/06/02 18:21:12;;;;;;;;;;;27.40;33.10;;;;;;21245914;28;20271;-63
2022/06/02 18:31:14;;;;;;;;;;;;;;;;;;21246666;28;19924;-62
2022/06/02 18:41:16;;;;;;;;;;;;;;;;;;21247575;27;19931;-63
2022/06/02 18:51:18;;;;;;;;;;;27.90;32.20;;;;;;21261155;27;19970;-63
2022/06/02 19:01:22;;;;;;;;;;;;;;;;;;21259956;27;19946;-63
2022/06/02 19:21:34;;;;;;;;;;;;;;;;;;21259452;27;19923;-63
2022/06/02 19:31:36;;;;;;;;;;;;;;;;;;21257903;27;20255;-66
2022/06/02 19:41:38;;;;;;;;;;;;;;;;;;21257917;27;19923;-64
2022/06/02 19:51:40;;;;;;;;;;;;;;;;;;21254652;27;19931;-70
2022/06/02 20:01:42;;;;;;;;;;;;;;;;;;21254319;27;19923;-62
2022/06/02 20:11:44;;;;;;;;;;;;;;;;;;21256069;27;20385;-62
2022/06/02 20:21:52;;;;;;;;;;;25.40;34.50;;;;;;21253420;27;19942;-60
2022/06/02 20:32:02;;;;;;;;;;;25.10;35.70;;;;;;21254848;27;19927;-62
2022/06/02 20:42:10;;;;;;;;;;;25.00;36.30;;;;;;21253198;27;20321;-67
2022/06/02 20:52:11;;;;;;;;;;;24.80;37.20;;;;;;21252148;27;20013;-62
2022/06/02 21:02:17;;;;;;;;;;;24.60;37.70;;;;;;21251428;27;20045;-63
2022/06/02 21:12:30;;;;;;;;;;;24.50;37.50;;;;;;21249011;27;19955;-61
2022/06/02 21:22:55;;;;;;;;;;;24.40;37.60;;;;;;21249840;27;19934;-62
2022/06/02 21:33:02;;;;;;;;;;;24.40;37.70;;;;;;21240614;27;19927;-64
2022/06/02 21:43:03;;;;;;;;;;;24.20;37.90;;;;;;21249054;27;19930;-61
2022/06/02 21:53:05;;;;;;;;;;;24.10;38.00;;;;;;21248248;28;20375;-62
2022/06/02 22:03:09;;;;;;;;;;;24.00;38.40;;;;;;21246898;28;20363;-62
2022/06/02 22:13:18;;;;;;;;;;;23.80;38.60;;;;;;21246803;28;19931;-60
2022/06/02 22:23:21;;;;;;;;;;;23.70;39.00;;;;;;21257931;27;19924;-61
2022/06/02 22:33:23;;;;;;;;;;;23.60;39.20;;;;;;21263405;27;20263;-61
2022/06/02 22:43:43;;;;;;;;;;;23.50;39.30;;;;;;21262007;27;20427;-61
2022/06/02 22:53:57;;;;;;;;;;;23.50;39.40;;;;;;21261167;27;19923;-61
2022/06/02 23:03:59;;;;;;;;;;;23.50;39.40;;;;;;21261273;27;19931;-61
2022/06/02 23:14:09;;;;;;;;;;;23.60;39.40;;;;;;21259814;27;20021;-62
2022/06/02 23:24:33;;;;;;;;;;;23.60;39.50;;;;;;21240744;27;20402;-62
2022/06/02 23:34:34;;;;;;;;;;;23.60;39.50;;;;;;21258447;27;20290;-60
2022/06/02 23:44:36;;;;;;;;;;;23.40;39.60;;;;;;21257116;27;19924;-61
2022/06/02 23:54:46;;;;;;;;;;;23.40;39.60;;;;;;21256026;27;20434;-62
